createdAt,value
2022-10-17T00:01:56.109Z,7.78
2022-10-17T00:04:22.724Z,7.05
2022-10-17T00:06:49.236Z,7.22
2022-10-17T00:09:15.896Z,7.13
2022-10-17T00:11:42.456Z,7.35
2022-10-17T00:14:08.957Z,7.00
2022-10-17T00:16:39.521Z,6.57
2022-10-17T00:19:07.208Z,7.93
2022-10-17T00:21:35.023Z,7.22
2022-10-17T00:24:01.632Z,7.80
2022-10-17T00:26:31.143Z,7.07
2022-10-17T00:28:57.680Z,7.43
2022-10-17T00:31:24.897Z,7.97
2022-10-17T00:33:51.962Z,7.80
2022-10-17T00:36:26.426Z,7.55
2022-10-17T00:38:55.685Z,8.70
2022-10-17T00:41:25.030Z,8.07
2022-10-17T00:43:53.187Z,8.30
2022-10-17T00:46:20.649Z,7.80
2022-10-17T00:48:49.085Z,8.27
2022-10-17T00:51:15.992Z,9.15
2022-10-17T00:53:42.559Z,9.02
2022-10-17T00:56:09.141Z,8.93
2022-10-17T00:58:35.786Z,9.02
2022-10-17T01:01:03.054Z,8.98
2022-10-17T01:03:29.632Z,8.70
2022-10-17T01:05:56.878Z,9.18
2022-10-17T01:08:23.599Z,9.90
2022-10-17T01:11:14.514Z,9.43
2022-10-17T01:13:54.313Z,9.10
2022-10-17T01:16:40.774Z,10.02
2022-10-17T01:19:40.896Z,10.02
2022-10-17T01:22:22.907Z,10.68
2022-10-17T01:25:13.718Z,10.85
2022-10-17T01:27:52.135Z,10.70
2022-10-17T01:30:43.141Z,10.00
2022-10-17T01:33:15.699Z,9.30
2022-10-17T01:35:50.363Z,9.55
2022-10-17T01:38:16.763Z,10.25
2022-10-17T01:40:49.022Z,10.55
2022-10-17T01:43:24.322Z,9.68
2022-10-17T01:45:58.903Z,10.13
2022-10-17T01:48:30.127Z,9.50
2022-10-17T01:51:17.157Z,9.77
2022-10-17T01:53:50.178Z,9.77
2022-10-17T01:56:17.886Z,9.77
2022-10-17T01:58:49.315Z,9.90
2022-10-17T02:01:16.733Z,9.60
2022-10-17T02:03:43.934Z,9.98
2022-10-17T02:06:10.671Z,10.40
2022-10-17T02:08:48.775Z,9.50
2022-10-17T02:11:18.813Z,9.85
2022-10-17T02:14:06.654Z,10.27
2022-10-17T02:16:42.243Z,10.32
2022-10-17T02:19:18.391Z,10.02
2022-10-17T02:22:01.659Z,9.85
2022-10-17T02:24:46.740Z,11.10
2022-10-17T02:27:37.979Z,11.18
2022-10-17T02:30:23.052Z,10.70
2022-10-17T02:32:56.886Z,10.38
2022-10-17T02:35:25.970Z,10.30
2022-10-17T02:37:53.399Z,9.52
2022-10-17T02:40:22.010Z,9.40
2022-10-17T02:42:49.235Z,9.80
2022-10-17T02:45:15.933Z,10.32
2022-10-17T02:47:54.410Z,9.75
2022-10-17T02:50:24.608Z,10.30
2022-10-17T02:53:09.308Z,9.73
2022-10-17T02:55:43.772Z,10.45
2022-10-17T02:58:23.625Z,9.98
2022-10-17T03:00:50.955Z,9.82
2022-10-17T03:03:26.173Z,9.70
2022-10-17T03:08:20.147Z,11.18
2022-10-17T03:10:46.929Z,9.82
2022-10-17T03:13:14.446Z,9.32
2022-10-17T03:15:41.363Z,9.10
2022-10-17T03:18:08.194Z,9.48
2022-10-17T03:20:34.739Z,9.35
2022-10-17T03:23:01.311Z,9.05
2022-10-17T03:25:28.055Z,9.43
2022-10-17T03:27:54.880Z,8.80
2022-10-17T03:30:21.380Z,9.63
2022-10-17T03:32:48.048Z,9.23
2022-10-17T03:35:14.952Z,9.13
2022-10-17T03:37:41.876Z,8.38
2022-10-17T03:40:08.792Z,9.18
2022-10-17T03:42:35.499Z,9.55
2022-10-17T03:45:01.988Z,8.60
2022-10-17T03:47:29.312Z,8.48
2022-10-17T03:49:56.023Z,7.70
2022-10-17T03:52:22.591Z,8.98
2022-10-17T03:54:50.799Z,8.05
2022-10-17T03:57:18.330Z,7.80
2022-10-17T03:59:44.888Z,7.45
2022-10-17T04:02:11.454Z,7.35
2022-10-17T04:04:38.008Z,7.00
2022-10-17T04:07:04.750Z,6.95
2022-10-17T04:09:31.294Z,6.45
2022-10-17T04:11:57.754Z,6.95
2022-10-17T04:14:24.238Z,7.03
2022-10-17T04:16:50.759Z,6.45
2022-10-17T04:19:17.284Z,7.18
2022-10-17T04:21:43.993Z,6.40
2022-10-17T04:24:11.714Z,7.00
2022-10-17T04:26:38.236Z,8.07
2022-10-17T04:29:04.764Z,8.10
2022-10-17T04:31:31.568Z,7.85
2022-10-17T04:33:58.046Z,7.55
2022-10-17T04:36:24.881Z,7.65
2022-10-17T04:38:51.355Z,6.95
2022-10-17T04:41:18.936Z,7.32
2022-10-17T04:43:48.618Z,7.22
2022-10-17T04:46:17.867Z,7.53
2022-10-17T04:48:44.383Z,6.57
2022-10-17T04:51:13.132Z,7.38
2022-10-17T04:53:40.354Z,7.18
2022-10-17T04:56:15.492Z,7.07
2022-10-17T05:01:14.078Z,7.07
2022-10-17T05:03:40.637Z,7.15
2022-10-17T05:06:12.450Z,6.72
2022-10-17T05:08:39.502Z,6.55
2022-10-17T05:11:16.181Z,7.03
2022-10-17T05:13:42.943Z,7.03
2022-10-17T05:16:09.770Z,8.25
2022-10-17T05:18:36.334Z,7.20
2022-10-17T05:21:05.767Z,7.18
2022-10-17T05:23:32.804Z,6.63
2022-10-17T05:25:59.402Z,6.30
2022-10-17T05:28:25.913Z,7.53
2022-10-17T05:30:52.412Z,6.50
2022-10-17T05:33:19.060Z,6.57
2022-10-17T05:35:45.620Z,7.45
2022-10-17T05:38:12.116Z,6.78
2022-10-17T05:40:39.445Z,7.28
2022-10-17T05:43:06.311Z,6.72
2022-10-17T05:45:33.064Z,7.40
2022-10-17T05:47:59.537Z,6.95
2022-10-17T05:50:26.099Z,6.38
2022-10-17T05:52:55.819Z,6.82
2022-10-17T05:55:22.850Z,6.40
2022-10-17T05:57:50.526Z,7.45
2022-10-17T06:00:17.285Z,7.93
2022-10-17T06:02:46.036Z,7.68
2022-10-17T06:05:13.272Z,8.57
2022-10-17T06:07:40.018Z,8.40
2022-10-17T06:10:06.985Z,8.35
2022-10-17T06:12:33.508Z,9.48
2022-10-17T06:15:00.138Z,7.85
2022-10-17T06:17:26.715Z,8.35
2022-10-17T06:19:53.419Z,7.75
2022-10-17T06:22:19.877Z,7.75
2022-10-17T06:24:46.388Z,8.23
2022-10-17T06:27:13.380Z,7.07
2022-10-17T06:29:40.096Z,8.93
2022-10-17T06:32:09.822Z,8.07
2022-10-17T06:34:39.119Z,8.30
2022-10-17T06:37:05.611Z,7.85
2022-10-17T06:39:34.054Z,7.80
2022-10-17T06:42:01.346Z,8.02
2022-10-17T06:44:31.619Z,8.65
2022-10-17T06:46:59.254Z,7.60
2022-10-17T06:49:26.062Z,8.57
2022-10-17T06:51:52.737Z,7.55
2022-10-17T06:54:19.284Z,6.95
2022-10-17T06:56:45.748Z,7.55
2022-10-17T06:59:12.378Z,7.13
2022-10-17T07:01:40.690Z,8.02
2022-10-17T07:04:09.650Z,7.43
2022-10-17T07:06:36.250Z,7.13
2022-10-17T07:09:03.319Z,7.07
2022-10-17T07:11:30.024Z,7.80
2022-10-17T07:13:56.525Z,8.10
2022-10-17T07:16:23.287Z,8.05
2022-10-17T07:18:51.249Z,8.00
2022-10-17T07:21:17.787Z,8.18
2022-10-17T07:23:44.311Z,8.20
2022-10-17T07:26:13.175Z,9.10
2022-10-17T07:28:41.675Z,8.30
2022-10-17T07:31:11.550Z,8.95
2022-10-17T07:33:38.310Z,8.57
2022-10-17T07:36:05.739Z,8.82
2022-10-17T07:38:32.769Z,10.02
2022-10-17T07:41:00.941Z,10.88
2022-10-17T07:43:28.248Z,10.35
2022-10-17T07:45:55.460Z,10.82
2022-10-17T07:48:23.501Z,10.77
2022-10-17T07:50:50.590Z,9.57
2022-10-17T07:53:17.255Z,10.20
2022-10-17T07:55:44.949Z,9.95
2022-10-17T07:58:11.487Z,10.10
2022-10-17T08:00:38.566Z,10.40
2022-10-17T08:03:05.932Z,10.38
2022-10-17T08:05:33.379Z,11.07
2022-10-17T08:07:59.993Z,10.93
2022-10-17T08:10:27.774Z,11.07
2022-10-17T08:12:55.353Z,10.38
2022-10-17T08:15:22.422Z,10.60
2022-10-17T08:17:48.911Z,10.05
2022-10-17T08:20:15.865Z,11.57
2022-10-17T08:22:42.401Z,11.40
2022-10-17T08:25:09.645Z,11.48
2022-10-17T08:27:36.137Z,11.68
2022-10-17T08:30:02.719Z,11.50
2022-10-17T08:32:29.773Z,11.10
2022-10-17T08:34:56.536Z,11.07
2022-10-17T08:37:23.670Z,10.98
2022-10-17T08:39:50.178Z,11.52
2022-10-17T08:42:38.136Z,10.10
2022-10-17T08:45:07.545Z,11.77
2022-10-17T08:47:36.374Z,11.20
2022-10-17T08:50:05.967Z,10.25
2022-10-17T08:52:38.738Z,11.07
2022-10-17T08:55:14.580Z,11.50
2022-10-17T08:57:41.235Z,11.75
2022-10-17T09:00:15.839Z,11.07
2022-10-17T09:03:02.229Z,11.63
2022-10-17T09:05:47.563Z,10.32
2022-10-17T09:08:40.326Z,9.88
2022-10-17T09:11:18.863Z,9.13
2022-10-17T09:14:04.917Z,9.63
2022-10-17T09:16:41.430Z,9.48
2022-10-17T09:19:25.046Z,7.82
2022-10-17T09:22:17.603Z,8.55
2022-10-17T09:24:58.207Z,8.77
2022-10-17T09:27:28.557Z,8.82
2022-10-17T09:30:40.091Z,8.65
2022-10-17T09:33:34.630Z,7.68
2022-10-17T09:36:05.775Z,8.25
2022-10-17T09:38:41.766Z,6.80
2022-10-17T09:41:42.849Z,7.20
2022-10-17T09:44:22.509Z,7.13
2022-10-17T09:46:48.964Z,7.10
2022-10-17T09:49:20.989Z,7.80
2022-10-17T09:51:48.204Z,7.80
2022-10-17T09:54:22.628Z,8.57
2022-10-17T09:57:04.614Z,9.52
2022-10-17T09:59:42.179Z,9.55
2022-10-17T10:02:23.119Z,7.88
2022-10-17T10:05:09.551Z,6.90
2022-10-17T10:07:38.548Z,7.72
2022-10-17T10:10:08.492Z,8.52
2022-10-17T10:12:38.038Z,8.02
2022-10-17T10:15:31.336Z,7.25
2022-10-17T10:17:57.934Z,7.75
2022-10-17T10:20:34.673Z,7.05
2022-10-17T10:23:18.410Z,7.65
2022-10-17T10:25:58.954Z,7.65
2022-10-17T10:28:31.450Z,6.90
2022-10-17T10:31:01.105Z,7.35
2022-10-17T10:33:29.912Z,7.18
2022-10-17T10:36:02.032Z,6.75
2022-10-17T10:38:29.204Z,5.68
2022-10-17T10:40:58.275Z,5.18
2022-10-17T10:43:38.107Z,5.53
2022-10-17T10:46:15.668Z,5.45
2022-10-17T10:48:51.040Z,5.15
2022-10-17T10:51:20.821Z,7.32
2022-10-17T10:53:51.813Z,7.57
2022-10-17T10:56:26.288Z,7.47
2022-10-17T10:59:08.387Z,8.15
2022-10-17T11:02:12.900Z,8.55
2022-10-17T11:04:47.825Z,8.38
2022-10-17T11:07:29.854Z,7.40
2022-10-17T11:10:14.446Z,6.70
2022-10-17T11:12:52.798Z,7.70
2022-10-17T11:15:40.941Z,6.95
2022-10-17T11:18:17.001Z,7.65
2022-10-17T11:21:04.743Z,7.15
2022-10-17T11:23:43.650Z,7.43
2022-10-17T11:26:31.717Z,7.60
2022-10-17T11:29:00.466Z,7.25
2022-10-17T11:31:38.752Z,6.57
2022-10-17T11:34:25.682Z,6.00
2022-10-17T11:36:56.775Z,5.22
2022-10-17T11:39:30.720Z,4.28
2022-10-17T11:42:07.323Z,4.60
2022-10-17T11:44:37.840Z,4.45
2022-10-17T11:47:04.553Z,4.35
2022-10-17T11:49:38.217Z,4.20
2022-10-17T11:52:56.038Z,3.83
2022-10-17T11:55:24.057Z,4.10
2022-10-17T11:57:53.018Z,4.22
2022-10-17T12:00:35.779Z,4.90
2022-10-17T12:03:13.848Z,4.53
2022-10-17T12:06:20.259Z,5.05
2022-10-17T12:09:02.152Z,5.57
2022-10-17T12:11:57.563Z,5.03
2022-10-17T12:14:46.710Z,4.72
2022-10-17T12:17:36.866Z,5.53
2022-10-17T12:20:23.520Z,4.47
2022-10-17T12:23:09.332Z,5.57
2022-10-17T12:25:42.632Z,5.03
2022-10-17T12:28:14.161Z,5.00
2022-10-17T12:31:03.644Z,5.28
2022-10-17T12:33:34.479Z,4.88
2022-10-17T12:36:22.187Z,4.80
2022-10-17T12:38:50.653Z,5.10
2022-10-17T12:41:17.784Z,5.40
2022-10-17T12:43:54.410Z,5.90
2022-10-17T12:46:45.129Z,5.28
2022-10-17T12:49:46.506Z,5.38
2022-10-17T12:52:22.262Z,5.38
2022-10-17T12:55:07.141Z,4.80
2022-10-17T12:57:51.664Z,4.57
2022-10-17T13:00:20.245Z,3.90
2022-10-17T13:02:47.692Z,3.60
2022-10-17T13:05:18.028Z,4.03
2022-10-17T13:07:45.286Z,3.28
2022-10-17T13:13:15.882Z,3.13
2022-10-17T13:15:47.118Z,3.03
2022-10-17T13:18:26.142Z,2.92
2022-10-17T13:21:03.297Z,2.92
2022-10-17T13:23:35.797Z,2.70
2022-10-17T13:26:06.249Z,2.75
2022-10-17T13:28:35.920Z,2.92
2022-10-17T13:31:06.101Z,2.47
2022-10-17T13:33:37.852Z,3.15
2022-10-17T13:36:07.629Z,2.88
2022-10-17T13:38:36.760Z,2.47
2022-10-17T13:41:34.187Z,2.83
2022-10-17T13:43:58.675Z,2.65
2022-10-17T13:46:39.234Z,3.15
2022-10-17T13:52:19.421Z,2.72
2022-10-17T13:54:48.433Z,3.00
2022-10-17T13:57:17.921Z,2.38
2022-10-17T13:59:47.768Z,2.85
2022-10-17T14:02:17.714Z,2.70
2022-10-17T14:05:15.211Z,2.78
2022-10-17T14:08:10.064Z,2.40
2022-10-17T14:10:37.595Z,2.67
2022-10-17T14:13:08.275Z,2.38
2022-10-17T14:15:36.673Z,2.35
2022-10-17T14:18:07.973Z,2.60
2022-10-17T14:23:37.628Z,2.88
2022-10-17T14:26:25.290Z,3.10
2022-10-17T14:29:07.890Z,2.60
2022-10-17T14:31:35.977Z,2.78
2022-10-17T14:34:04.464Z,2.72
2022-10-17T14:36:34.529Z,2.70
2022-10-17T14:39:01.867Z,3.47
2022-10-17T14:41:48.073Z,2.90
2022-10-17T14:44:35.574Z,2.67
2022-10-17T14:47:30.370Z,2.70
2022-10-17T14:49:52.573Z,2.67
2022-10-17T14:52:19.201Z,3.40
2022-10-17T14:54:49.477Z,2.33
2022-10-17T14:57:27.609Z,2.95
2022-10-17T14:59:57.823Z,3.00
2022-10-17T15:02:25.609Z,2.85
2022-10-17T15:04:52.779Z,3.22
2022-10-17T15:07:21.030Z,3.15
2022-10-17T15:09:49.311Z,2.75
2022-10-17T15:12:18.751Z,3.10
2022-10-17T15:14:47.327Z,3.17
2022-10-17T15:17:32.064Z,3.00
2022-10-17T15:19:59.055Z,4.10
2022-10-17T15:22:25.574Z,2.13
2022-10-17T15:24:52.270Z,2.30
2022-10-17T15:27:20.200Z,2.35
2022-10-17T15:29:47.238Z,2.28
2022-10-17T15:32:14.130Z,2.67
2022-10-17T15:34:41.317Z,2.28
2022-10-17T15:37:19.297Z,2.28
2022-10-17T15:39:53.073Z,2.47
2022-10-17T15:42:21.378Z,2.35
2022-10-17T15:44:49.977Z,2.20
2022-10-17T15:47:30.978Z,2.00
2022-10-17T15:49:57.805Z,1.92
2022-10-17T15:52:24.668Z,2.10
2022-10-17T15:54:51.414Z,2.10
2022-10-17T15:57:20.639Z,1.90
2022-10-17T15:59:48.127Z,2.60
2022-10-17T16:02:15.653Z,2.00
2022-10-17T16:04:42.522Z,2.10
2022-10-17T16:07:09.205Z,2.40
2022-10-17T16:09:37.436Z,2.55
2022-10-17T16:12:12.321Z,1.98
2022-10-17T16:14:38.973Z,2.30
2022-10-17T16:17:05.608Z,1.70
2022-10-17T16:19:32.116Z,1.90
2022-10-17T16:22:04.287Z,2.13
2022-10-17T16:24:31.259Z,2.35
2022-10-17T16:26:57.777Z,2.17
2022-10-17T16:29:24.257Z,2.80
2022-10-17T16:31:50.819Z,2.22
2022-10-17T16:34:17.330Z,3.20
2022-10-17T16:36:43.986Z,3.13
2022-10-17T16:39:11.104Z,2.50
2022-10-17T16:41:38.903Z,2.70
2022-10-17T16:44:07.669Z,2.88
2022-10-17T16:46:36.802Z,2.80
2022-10-17T16:49:04.700Z,2.72
2022-10-17T16:51:33.637Z,2.70
2022-10-17T16:54:00.367Z,2.75
2022-10-17T16:56:32.586Z,3.08
2022-10-17T16:59:00.221Z,2.88
2022-10-17T17:01:26.799Z,2.72
2022-10-17T17:03:53.547Z,3.60
2022-10-17T17:06:24.329Z,3.33
2022-10-17T17:08:51.187Z,3.58
2022-10-17T17:11:19.639Z,3.05
2022-10-17T17:13:46.707Z,3.05
2022-10-17T17:16:16.201Z,3.17
2022-10-17T17:18:43.503Z,3.50
2022-10-17T17:21:10.868Z,4.10
2022-10-17T17:23:39.448Z,3.38
2022-10-17T17:26:18.387Z,2.90
2022-10-17T17:28:45.516Z,3.00
2022-10-17T17:31:16.306Z,2.80
2022-10-17T17:33:43.293Z,2.72
2022-10-17T17:36:13.874Z,4.60
2022-10-17T17:38:41.480Z,3.38
2022-10-17T17:41:08.210Z,2.60
2022-10-17T17:43:35.691Z,2.85
2022-10-17T17:46:02.703Z,2.92
2022-10-17T17:48:29.437Z,3.00
2022-10-17T17:50:56.109Z,2.50
2022-10-17T17:53:23.096Z,2.67
2022-10-17T17:56:01.259Z,3.90
2022-10-17T17:58:27.857Z,4.00
2022-10-17T18:00:54.429Z,3.28
2022-10-17T18:03:20.980Z,3.97
2022-10-17T18:05:47.502Z,3.92
2022-10-17T18:08:13.976Z,4.53
2022-10-17T18:10:40.475Z,4.15
2022-10-17T18:13:07.210Z,4.25
2022-10-17T18:15:33.738Z,4.10
2022-10-17T18:18:00.401Z,4.10
2022-10-17T18:20:27.802Z,4.43
2022-10-17T18:22:54.309Z,4.00
2022-10-17T18:25:20.832Z,4.55
2022-10-17T18:27:47.997Z,4.20
2022-10-17T18:30:14.809Z,4.53
2022-10-17T18:32:41.274Z,4.05
2022-10-17T18:35:08.025Z,4.53
2022-10-17T18:37:34.619Z,4.82
2022-10-17T18:40:03.089Z,4.47
2022-10-17T18:42:30.082Z,5.03
2022-10-17T18:44:56.819Z,4.15
2022-10-17T18:47:23.307Z,5.13
2022-10-17T18:49:49.999Z,4.63
2022-10-17T18:52:16.495Z,5.28
2022-10-17T18:54:43.064Z,4.28
2022-10-17T18:57:09.613Z,4.70
2022-10-17T18:59:37.011Z,5.05
2022-10-17T19:02:03.548Z,5.00
2022-10-17T19:04:30.151Z,5.57
2022-10-17T19:06:56.609Z,5.30
2022-10-17T19:09:23.098Z,5.13
2022-10-17T19:11:49.743Z,4.68
2022-10-17T19:14:16.317Z,4.78
2022-10-17T19:16:45.791Z,5.10
2022-10-17T19:19:15.444Z,4.57
2022-10-17T19:21:42.309Z,4.50
2022-10-17T19:24:13.368Z,4.82
2022-10-17T19:26:41.088Z,4.60
2022-10-17T19:29:07.796Z,5.55
2022-10-17T19:31:35.424Z,5.20
2022-10-17T19:34:01.982Z,5.30
2022-10-17T19:36:33.181Z,5.90
2022-10-17T19:39:05.615Z,5.35
2022-10-17T19:41:32.408Z,5.65
2022-10-17T19:44:00.658Z,5.80
2022-10-17T19:46:28.668Z,6.32
2022-10-17T19:48:55.534Z,6.05
2022-10-17T19:51:26.429Z,6.22
2022-10-17T19:53:55.011Z,5.97
2022-10-17T19:56:22.601Z,6.53
2022-10-17T19:58:49.993Z,6.45
2022-10-17T20:01:22.784Z,6.38
2022-10-17T20:03:49.525Z,6.10
2022-10-17T20:06:17.104Z,6.53
2022-10-17T20:08:44.131Z,7.30
2022-10-17T20:11:29.328Z,7.57
2022-10-17T20:13:56.390Z,8.57
2022-10-17T20:16:25.396Z,7.88
2022-10-17T20:18:54.764Z,8.52
2022-10-17T20:21:24.867Z,9.13
2022-10-17T20:23:51.571Z,8.15
2022-10-17T20:26:36.950Z,9.48
2022-10-17T20:29:12.564Z,9.93
2022-10-17T20:31:40.220Z,8.43
2022-10-17T20:34:06.990Z,8.85
2022-10-17T20:36:37.024Z,8.77
2022-10-17T20:39:04.922Z,9.27
2022-10-17T20:41:31.402Z,9.93
2022-10-17T20:43:57.910Z,9.27
2022-10-17T20:46:36.422Z,9.20
2022-10-17T20:49:05.843Z,9.55
2022-10-17T20:51:32.607Z,10.23
2022-10-17T20:53:59.115Z,10.40
2022-10-17T20:56:28.108Z,10.02
2022-10-17T20:58:58.454Z,11.02
2022-10-17T21:01:26.020Z,11.30
2022-10-17T21:03:52.835Z,12.35
2022-10-17T21:06:19.978Z,12.07
2022-10-17T21:08:47.339Z,11.10
2022-10-17T21:11:17.512Z,10.02
2022-10-17T21:13:44.739Z,9.52
2022-10-17T21:16:17.371Z,9.93
2022-10-17T21:18:44.406Z,9.70
2022-10-17T21:21:14.361Z,9.25
2022-10-17T21:23:42.562Z,9.27
2022-10-17T21:26:10.292Z,9.48
2022-10-17T21:28:37.860Z,9.43
2022-10-17T21:31:11.593Z,10.45
2022-10-17T21:33:38.760Z,9.48
2022-10-17T21:36:06.141Z,9.95
2022-10-17T21:38:35.847Z,9.88
2022-10-17T21:41:02.407Z,10.30
2022-10-17T21:43:28.942Z,10.70
2022-10-17T21:45:55.444Z,10.32
2022-10-17T21:48:21.981Z,11.55
2022-10-17T21:50:48.479Z,11.25
2022-10-17T21:53:14.996Z,9.80
2022-10-17T21:55:41.528Z,10.00
2022-10-17T21:58:08.015Z,10.65
2022-10-17T22:00:34.572Z,11.73
2022-10-17T22:03:01.101Z,13.35
2022-10-17T22:05:27.648Z,12.63
2022-10-17T22:07:54.291Z,14.18
2022-10-17T22:10:20.751Z,12.93
2022-10-17T22:12:47.275Z,14.85
2022-10-17T22:17:41.218Z,14.15
2022-10-17T22:20:08.130Z,13.68
2022-10-17T22:22:34.633Z,15.65
2022-10-17T22:25:01.102Z,14.55
2022-10-17T22:27:27.716Z,14.73
2022-10-17T22:29:54.229Z,14.50
2022-10-17T22:32:22.524Z,14.52
2022-10-17T22:34:49.295Z,15.65
2022-10-17T22:37:15.897Z,15.38
2022-10-17T22:39:42.419Z,16.35
2022-10-17T22:42:08.978Z,17.48
2022-10-17T22:44:35.696Z,16.90
2022-10-17T22:47:02.613Z,17.17
2022-10-17T22:49:29.094Z,15.23
2022-10-17T22:51:55.552Z,15.18
2022-10-17T22:54:22.023Z,13.75
2022-10-17T22:56:48.495Z,14.00
2022-10-17T22:59:15.360Z,14.05
2022-10-17T23:01:41.905Z,15.27
2022-10-17T23:04:08.502Z,13.88
2022-10-17T23:06:35.132Z,13.77
2022-10-17T23:09:01.812Z,14.52
2022-10-17T23:11:28.302Z,15.00
2022-10-17T23:13:54.796Z,15.15
2022-10-17T23:16:21.323Z,14.18
2022-10-17T23:18:48.197Z,14.90
2022-10-17T23:21:14.832Z,15.50
2022-10-17T23:23:41.334Z,16.58
2022-10-17T23:26:12.897Z,15.57
2022-10-17T23:28:40.275Z,17.33
2022-10-17T23:31:18.473Z,17.05
2022-10-17T23:33:46.232Z,17.60
2022-10-17T23:36:14.697Z,18.20
2022-10-17T23:38:42.728Z,17.98
2022-10-17T23:41:09.756Z,18.70
2022-10-17T23:43:36.508Z,19.75
2022-10-17T23:46:04.372Z,16.85
2022-10-17T23:48:30.932Z,19.67
2022-10-17T23:50:57.421Z,18.73
2022-10-17T23:53:24.344Z,19.27
2022-10-17T23:55:51.104Z,16.85
2022-10-17T23:58:18.024Z,17.52
